Time;durP1;ratioP1;P1;durP2;ratioP2;P2;SDS_P1;SDS_P2;PMS_P1;PMS_P2;Temp;Humidity;BMP_temperature;BMP_pressure;BME280_temperature;BME280_humidity;BME280_pressure;Samples;Min_cycle;Max_cycle;Signal;HPM_P1;HPM_P2
2021/06/25 00:00:10;;;;;;;4.53;1.95;;;;;;;;;;5103861;27;20118;-80
2021/06/25 00:02:36;;;;;;;4.30;1.90;;;;;;;;;;5128116;27;20407;-81
2021/06/25 00:05:03;;;;;;;3.17;2.00;;;;;;;;;;5121967;27;20024;-79
2021/06/25 00:07:29;;;;;;;3.55;2.00;;;;;;;;;;5105624;27;20031;-79
2021/06/25 00:09:55;;;;;;;4.00;2.70;;;;;;;;;;5119158;27;20069;-80
2021/06/25 00:12:21;;;;;;;3.58;2.50;;;;;;;;;;5114503;27;20030;-78
2021/06/25 00:14:47;;;;;;;5.05;2.08;;;;;;;;;;5099357;27;20178;-82
2021/06/25 00:17:13;;;;;;;5.22;2.40;;;;;;;;;;5108672;27;20052;-81
2021/06/25 00:19:39;;;;;;;4.90;2.20;;;;;;;;;;5117790;27;20124;-80
2021/06/25 00:22:05;;;;;;;3.35;2.17;;;;;;;;;;5129699;27;20031;-80
2021/06/25 00:24:31;;;;;;;2.33;2.03;;;;;;;;;;5118276;27;20039;-79
2021/06/25 00:26:57;;;;;;;2.80;1.90;;;;;;;;;;5124019;27;20360;-78
2021/06/25 00:29:23;;;;;;;3.80;1.90;;;;;;;;;;5110277;27;20046;-80
2021/06/25 00:31:49;;;;;;;4.35;2.40;;;;;;;;;;5108451;27;20015;-81
2021/06/25 00:34:16;;;;;;;3.80;2.00;;;;;;;;;;5100856;28;20025;-79
2021/06/25 00:36:42;;;;;;;4.30;2.20;;;;;;;;;;5126278;27;20019;-79
2021/06/25 00:39:08;;;;;;;3.33;2.05;;;;;;;;;;5111988;27;20035;-82
2021/06/25 00:41:34;;;;;;;3.90;1.90;;;;;;;;;;5124725;27;20044;-81
2021/06/25 00:44:00;;;;;;;3.92;2.00;;;;;;;;;;5122650;27;20036;-82
2021/06/25 00:46:26;;;;;;;2.55;1.90;;;;;;;;;;5112854;27;20028;-80
2021/06/25 00:48:52;;;;;;;4.35;2.10;;;;;;;;;;5112030;28;20019;-80
2021/06/25 00:51:18;;;;;;;2.95;2.00;;;;;;;;;;5118210;27;20024;-81
2021/06/25 00:53:44;;;;;;;3.78;2.00;;;;;;;;;;5119863;27;20054;-81
2021/06/25 00:56:12;;;;;;;6.88;2.10;;;;;;;;;;5120270;27;20111;-81
2021/06/25 00:58:38;;;;;;;3.05;1.92;;;;;;;;;;5110136;27;20490;-80
2021/06/25 01:01:04;;;;;;;2.45;1.98;;;;;;;;;;5111464;28;20107;-80
2021/06/25 01:03:31;;;;;;;2.40;2.00;;;;;;;;;;5112385;27;20478;-81
2021/06/25 01:05:57;;;;;;;2.70;2.22;;;;;;;;;;5112284;27;20381;-79
2021/06/25 01:08:23;;;;;;;4.22;2.10;;;;;;;;;;5123830;27;20031;-80
2021/06/25 01:10:49;;;;;;;2.22;1.80;;;;;;;;;;5107478;28;20047;-80
2021/06/25 01:13:15;;;;;;;3.67;2.40;;;;;;;;;;5094455;27;20031;-79
2021/06/25 01:15:41;;;;;;;6.70;1.95;;;;;;;;;;5120962;27;20590;-80
2021/06/25 01:18:07;;;;;;;3.10;2.05;;;;;;;;;;5119403;27;20047;-80
2021/06/25 01:20:35;;;;;;;2.58;2.00;;;;;;;;;;5120128;27;20037;-80
2021/06/25 01:23:01;;;;;;;2.00;1.80;;;;;;;;;;5124039;27;20081;-80
2021/06/25 01:25:37;;;;;;;3.40;2.22;;;;;;;;;;5093070;28;20504;-80
2021/06/25 01:28:07;;;;;;;3.67;2.25;;;;;;;;;;5111662;27;20043;-80
2021/06/25 01:30:41;;;;;;;3.85;2.13;;;;;;;;;;5109298;27;20111;-79
2021/06/25 01:33:08;;;;;;;4.50;2.72;;;;;;;;;;5115688;27;20032;-80
2021/06/25 01:35:35;;;;;;;4.38;2.42;;;;;;;;;;5120198;27;20081;-79
2021/06/25 01:38:01;;;;;;;5.00;2.45;;;;;;;;;;5113930;27;20564;-79
2021/06/25 01:40:27;;;;;;;6.22;2.65;;;;;;;;;;5118726;27;20023;-80
2021/06/25 01:42:53;;;;;;;3.53;2.30;;;;;;;;;;5116254;27;20098;-81
2021/06/25 01:45:20;;;;;;;3.83;2.40;;;;;;;;;;5111605;28;20020;-80
2021/06/25 01:47:47;;;;;;;4.93;2.53;;;;;;;;;;5112535;27;20044;-80
2021/06/25 01:50:15;;;;;;;5.13;2.40;;;;;;;;;;5114625;27;20059;-80
2021/06/25 01:52:44;;;;;;;3.80;2.20;;;;;;;;;;5109481;27;20038;-80
2021/06/25 01:55:11;;;;;;;5.22;2.20;;;;;;;;;;5119569;27;20039;-80
2021/06/25 01:57:37;;;;;;;3.38;2.00;;;;;;;;;;5116034;27;20076;-81
2021/06/25 02:00:03;;;;;;;9.77;2.20;;;;;;;;;;5113048;27;20565;-79
2021/06/25 02:02:29;;;;;;;6.57;2.20;;;;;;;;;;5095459;27;20170;-81
2021/06/25 02:04:55;;;;;;;5.60;2.30;;;;;;;;;;5111622;27;20168;-80
2021/06/25 02:07:21;;;;;;;5.10;2.25;;;;;;;;;;5115713;27;20027;-81
2021/06/25 02:09:47;;;;;;;3.15;2.33;;;;;;;;;;5104457;28;20549;-79
2021/06/25 02:12:13;;;;;;;5.82;2.47;;;;;;;;;;5122749;27;20030;-80
2021/06/25 02:14:39;;;;;;;4.60;2.53;;;;;;;;;;5109943;28;20024;-80
2021/06/25 02:17:05;;;;;;;10.70;2.97;;;;;;;;;;5118382;27;20026;-80
2021/06/25 02:19:31;;;;;;;6.47;3.00;;;;;;;;;;5110567;28;20481;-79
2021/06/25 02:21:57;;;;;;;6.10;2.67;;;;;;;;;;5126544;27;20032;-79
2021/06/25 02:24:23;;;;;;;6.00;2.38;;;;;;;;;;5115465;27;20477;-79
2021/06/25 02:26:49;;;;;;;6.03;2.50;;;;;;;;;;5111450;27;20106;-80
2021/06/25 02:29:15;;;;;;;4.32;2.45;;;;;;;;;;5106838;27;20024;-79
2021/06/25 02:31:41;;;;;;;4.60;2.20;;;;;;;;;;5108223;27;20136;-79
2021/06/25 02:34:07;;;;;;;3.88;2.40;;;;;;;;;;5104848;28;20032;-81
2021/06/25 02:36:33;;;;;;;4.05;2.30;;;;;;;;;;5124277;27;20098;-81
2021/06/25 02:38:59;;;;;;;4.63;2.33;;;;;;;;;;5121101;27;20058;-81
2021/06/25 02:41:25;;;;;;;3.10;1.85;;;;;;;;;;5117103;27;20508;-79
2021/06/25 02:43:51;;;;;;;3.05;2.22;;;;;;;;;;5109256;27;20024;-81
2021/06/25 02:46:17;;;;;;;7.70;2.38;;;;;;;;;;5120331;27;20450;-81
2021/06/25 02:48:43;;;;;;;7.93;2.80;;;;;;;;;;5097878;28;20089;-80
2021/06/25 02:51:09;;;;;;;4.90;2.40;;;;;;;;;;5120090;28;20035;-81
2021/06/25 02:53:35;;;;;;;8.50;2.50;;;;;;;;;;5111136;28;20047;-80
2021/06/25 02:56:01;;;;;;;6.13;2.70;;;;;;;;;;5104131;28;20420;-80
2021/06/25 02:58:27;;;;;;;3.92;2.45;;;;;;;;;;5114226;28;20110;-79
2021/06/25 03:00:54;;;;;;;5.72;2.70;;;;;;;;;;5110884;28;20450;-81
2021/06/25 03:03:20;;;;;;;6.20;3.15;;;;;;;;;;5108746;28;20054;-80
2021/06/25 03:05:47;;;;;;;4.47;2.90;;;;;;;;;;5130123;28;20026;-81
2021/06/25 03:08:13;;;;;;;6.45;2.80;;;;;;;;;;5112347;28;20533;-79
2021/06/25 03:10:40;;;;;;;5.20;2.40;;;;;;;;;;5122093;28;20101;-81
2021/06/25 03:13:06;;;;;;;3.53;2.47;;;;;;;;;;5115430;27;20130;-79
2021/06/25 03:15:32;;;;;;;5.03;2.25;;;;;;;;;;5093115;28;20135;-82
2021/06/25 03:17:58;;;;;;;2.78;2.17;;;;;;;;;;5119541;27;20042;-81
2021/06/25 03:20:25;;;;;;;2.63;2.20;;;;;;;;;;5122296;27;20123;-80
2021/06/25 03:22:51;;;;;;;4.13;2.40;;;;;;;;;;5112068;28;20028;-80
2021/06/25 03:25:17;;;;;;;4.22;2.38;;;;;;;;;;5130952;27;20064;-81
2021/06/25 03:27:43;;;;;;;3.17;2.17;;;;;;;;;;5110543;27;20035;-79
2021/06/25 03:30:10;;;;;;;6.80;2.47;;;;;;;;;;5108744;27;20052;-81
2021/06/25 03:32:36;;;;;;;2.92;2.10;;;;;;;;;;5110539;27;20061;-80
2021/06/25 03:35:03;;;;;;;2.75;2.25;;;;;;;;;;5108312;27;20044;-80
2021/06/25 03:37:29;;;;;;;2.90;2.17;;;;;;;;;;5124381;27;20043;-82
2021/06/25 03:39:55;;;;;;;4.80;2.30;;;;;;;;;;5103014;27;20031;-80
2021/06/25 03:42:21;;;;;;;4.03;2.20;;;;;;;;;;5123848;27;20046;-81
2021/06/25 03:44:47;;;;;;;3.63;2.30;;;;;;;;;;5091150;28;20496;-82
2021/06/25 03:47:13;;;;;;;4.47;2.30;;;;;;;;;;5122746;27;20019;-80
2021/06/25 03:49:39;;;;;;;3.50;2.30;;;;;;;;;;5122067;27;20015;-80
2021/06/25 03:52:05;;;;;;;6.03;2.30;;;;;;;;;;5122261;27;20032;-79
2021/06/25 03:54:31;;;;;;;5.55;2.50;;;;;;;;;;5122407;27;20048;-81
2021/06/25 03:56:57;;;;;;;5.85;2.60;;;;;;;;;;5119159;27;20031;-81
2021/06/25 03:59:23;;;;;;;2.65;2.40;;;;;;;;;;5099967;27;20063;-80
2021/06/25 04:01:49;;;;;;;4.40;2.38;;;;;;;;;;5111463;28;20054;-80
2021/06/25 04:04:15;;;;;;;4.05;2.60;;;;;;;;;;5111270;27;20022;-80
2021/06/25 04:06:41;;;;;;;4.00;2.38;;;;;;;;;;5097045;27;20097;-80
2021/06/25 04:09:07;;;;;;;3.72;2.50;;;;;;;;;;5112861;27;20433;-81
2021/06/25 04:11:33;;;;;;;2.97;2.38;;;;;;;;;;5122299;27;20150;-81
2021/06/25 04:13:59;;;;;;;4.38;2.38;;;;;;;;;;5125040;27;20089;-81
2021/06/25 04:16:25;;;;;;;5.22;2.40;;;;;;;;;;5096492;27;20039;-80
2021/06/25 04:18:51;;;;;;;3.08;2.50;;;;;;;;;;5117224;27;20577;-82
2021/06/25 04:21:20;;;;;;;6.03;2.60;;;;;;;;;;5098628;28;20059;-81
2021/06/25 04:23:46;;;;;;;3.70;2.50;;;;;;;;;;5112139;27;20080;-81
2021/06/25 04:26:12;;;;;;;4.05;2.38;;;;;;;;;;5112367;27;20031;-80
2021/06/25 04:28:38;;;;;;;4.50;2.35;;;;;;;;;;5112484;27;20035;-82
2021/06/25 04:31:04;;;;;;;4.97;2.63;;;;;;;;;;5123205;27;20531;-81
2021/06/25 04:33:30;;;;;;;3.65;2.53;;;;;;;;;;5118188;27;20031;-81
2021/06/25 04:35:56;;;;;;;6.35;2.67;;;;;;;;;;5131895;27;20077;-79
2021/06/25 04:38:22;;;;;;;5.10;2.35;;;;;;;;;;5124000;27;20039;-80
2021/06/25 04:40:48;;;;;;;5.72;2.40;;;;;;;;;;5129791;27;20071;-82
2021/06/25 04:43:15;;;;;;;2.20;2.00;;;;;;;;;;5119785;27;20084;-81
2021/06/25 04:45:42;;;;;;;3.65;2.20;;;;;;;;;;5112173;27;20031;-80
2021/06/25 04:48:10;;;;;;;3.73;2.37;;;;;;;;;;5132869;27;20031;-81
2021/06/25 04:50:36;;;;;;;6.63;2.58;;;;;;;;;;5116645;27;20160;-80
2021/06/25 04:53:02;;;;;;;3.47;2.38;;;;;;;;;;5100639;28;20044;-78
2021/06/25 04:55:28;;;;;;;3.15;2.30;;;;;;;;;;5112013;27;20024;-79
2021/06/25 04:57:55;;;;;;;4.93;2.10;;;;;;;;;;5123597;27;20051;-80
2021/06/25 05:00:21;;;;;;;4.07;2.30;;;;;;;;;;5125752;27;20039;-80
2021/06/25 05:02:47;;;;;;;4.00;2.47;;;;;;;;;;5119790;27;20047;-79
2021/06/25 05:05:14;;;;;;;5.03;2.20;;;;;;;;;;5111526;28;20055;-80
2021/06/25 05:07:40;;;;;;;6.43;3.22;;;;;;;;;;5103712;28;20035;-81
2021/06/25 05:10:06;;;;;;;9.00;2.85;;;;;;;;;;5113854;27;20039;-81
2021/06/25 05:12:32;;;;;;;3.58;2.65;;;;;;;;;;5115281;27;20027;-81
2021/06/25 05:14:58;;;;;;;6.88;2.90;;;;;;;;;;5122808;27;20053;-78
2021/06/25 05:17:28;;;;;;;5.78;2.55;;;;;;;;;;5114335;27;20138;-80
2021/06/25 05:19:54;;;;;;;2.95;2.20;;;;;;;;;;5119705;27;20119;-82
2021/06/25 05:22:20;;;;;;;2.60;2.17;;;;;;;;;;5110824;28;20556;-80
2021/06/25 05:24:46;;;;;;;4.07;2.40;;;;;;;;;;5109611;27;20024;-80
2021/06/25 05:27:12;;;;;;;3.63;2.22;;;;;;;;;;5108276;28;20039;-81
2021/06/25 05:29:37;;;;;;;3.53;1.75;;;;;;;;;;5118096;27;20043;-81
2021/06/25 05:32:05;;;;;;;6.47;3.20;;;;;;;;;;5114953;27;20027;-82
2021/06/25 05:34:31;;;;;;;2.70;2.10;;;;;;;;;;5124426;27;20057;-81
2021/06/25 05:36:57;;;;;;;4.82;2.10;;;;;;;;;;5105002;27;20044;-80
2021/06/25 05:39:23;;;;;;;6.45;2.20;;;;;;;;;;5118555;27;20436;-81
2021/06/25 05:41:49;;;;;;;5.60;2.67;;;;;;;;;;5130746;27;20084;-80
2021/06/25 05:44:15;;;;;;;4.13;2.10;;;;;;;;;;5131708;27;20044;-82
2021/06/25 05:46:41;;;;;;;2.30;1.70;;;;;;;;;;5121414;27;20032;-81
2021/06/25 05:49:07;;;;;;;26.92;10.43;;;;;;;;;;5128313;27;20028;-78
2021/06/25 05:51:33;;;;;;;3.10;1.80;;;;;;;;;;5111591;27;20054;-82
2021/06/25 05:53:59;;;;;;;2.13;1.70;;;;;;;;;;5110798;27;20115;-82
2021/06/25 05:56:25;;;;;;;2.53;1.80;;;;;;;;;;5120120;27;20105;-83
2021/06/25 05:58:51;;;;;;;4.68;2.55;;;;;;;;;;5114044;27;20031;-83
2021/06/25 06:01:17;;;;;;;2.55;2.13;;;;;;;;;;5108806;27;20036;-84
2021/06/25 06:03:45;;;;;;;3.13;1.90;;;;;;;;;;5109889;28;20023;-82
2021/06/25 06:06:11;;;;;;;1.98;1.80;;;;;;;;;;5106798;27;20019;-83
2021/06/25 06:08:37;;;;;;;9.80;2.35;;;;;;;;;;5111007;27;20016;-84
2021/06/25 06:11:04;;;;;;;3.88;1.70;;;;;;;;;;5116571;27;20465;-83
2021/06/25 06:13:30;;;;;;;7.38;1.90;;;;;;;;;;5105782;27;20063;-85
2021/06/25 06:15:57;;;;;;;3.47;1.90;;;;;;;;;;5105409;27;20020;-84
2021/06/25 06:18:56;;;;;;;4.97;1.70;;;;;;;;;;5103819;27;20028;-81
2021/06/25 06:21:17;;;;;;;4.15;1.80;;;;;;;;;;5106661;27;20114;-82
2021/06/25 06:32:26;;;;;;;2.97;2.10;;;;;;;;;;5114795;27;20047;-77
2021/06/25 06:34:46;;;;;;;5.15;2.25;;;;;;;;;;5122384;27;20480;-77
2021/06/25 06:37:21;;;;;;;4.22;2.08;;;;;;;;;;5103040;28;20230;-77
2021/06/25 06:39:47;;;;;;;9.40;2.92;;;;;;;;;;5090795;28;20482;-78
2021/06/25 06:42:13;;;;;;;3.83;2.15;;;;;;;;;;5107506;27;20034;-79
2021/06/25 06:44:39;;;;;;;5.13;1.60;;;;;;;;;;5123284;27;20039;-78
2021/06/25 06:47:05;;;;;;;5.75;2.25;;;;;;;;;;5121849;27;20056;-79
2021/06/25 06:49:31;;;;;;;3.85;2.20;;;;;;;;;;5110312;28;20362;-79
2021/06/25 06:51:57;;;;;;;7.30;2.70;;;;;;;;;;5089868;28;20035;-78
2021/06/25 06:54:23;;;;;;;4.38;1.88;;;;;;;;;;5117943;28;20566;-77
2021/06/25 06:56:49;;;;;;;2.63;1.63;;;;;;;;;;5115836;28;20070;-79
2021/06/25 06:59:15;;;;;;;3.13;1.48;;;;;;;;;;5109197;28;20470;-77
2021/06/25 07:01:41;;;;;;;41.33;13.05;;;;;;;;;;5108817;28;20031;-78
2021/06/25 07:04:07;;;;;;;2.90;1.98;;;;;;;;;;5093887;28;20036;-79
2021/06/25 07:06:33;;;;;;;7.00;1.90;;;;;;;;;;5110202;28;20522;-78
2021/06/25 07:08:59;;;;;;;2.90;1.90;;;;;;;;;;5109854;28;20130;-79
2021/06/25 07:11:25;;;;;;;2.78;1.88;;;;;;;;;;5111514;28;20491;-79
2021/06/25 07:13:52;;;;;;;5.18;1.95;;;;;;;;;;5117702;28;20024;-77
2021/06/25 07:16:18;;;;;;;4.93;2.20;;;;;;;;;;5121412;28;20023;-78
2021/06/25 07:18:44;;;;;;;9.30;2.13;;;;;;;;;;5110651;28;20128;-78
2021/06/25 07:21:10;;;;;;;3.95;2.30;;;;;;;;;;5118303;28;20035;-78
2021/06/25 07:23:36;;;;;;;4.80;2.08;;;;;;;;;;5117704;28;20036;-79
2021/06/25 07:26:02;;;;;;;5.15;2.05;;;;;;;;;;5091626;28;20493;-78
2021/06/25 07:28:28;;;;;;;5.57;2.00;;;;;;;;;;5119748;28;20031;-78
2021/06/25 07:30:54;;;;;;;4.28;1.70;;;;;;;;;;5116820;28;20016;-77
2021/06/25 07:33:20;;;;;;;2.37;1.60;;;;;;;;;;5091730;28;20069;-77
2021/06/25 07:35:46;;;;;;;4.53;1.90;;;;;;;;;;5116989;28;20643;-79
2021/06/25 07:38:12;;;;;;;6.03;1.60;;;;;;;;;;5125788;28;20064;-78
2021/06/25 07:40:38;;;;;;;2.53;1.90;;;;;;;;;;5113307;28;20028;-77
2021/06/25 07:43:04;;;;;;;16.33;5.03;;;;;;;;;;5123192;28;20390;-78
2021/06/25 07:45:30;;;;;;;10.00;2.22;;;;;;;;;;5109589;28;20036;-78
2021/06/25 07:47:56;;;;;;;3.60;2.10;;;;;;;;;;5118122;28;20028;-78
2021/06/25 07:50:23;;;;;;;2.58;1.98;;;;;;;;;;5110062;28;20043;-77
2021/06/25 07:52:49;;;;;;;5.63;2.60;;;;;;;;;;5117988;28;20477;-77
2021/06/25 07:55:16;;;;;;;6.45;2.80;;;;;;;;;;5116508;28;20051;-78
2021/06/25 07:57:43;;;;;;;7.25;2.72;;;;;;;;;;5118536;28;20047;-78
2021/06/25 08:00:09;;;;;;;3.80;2.50;;;;;;;;;;5119361;27;20084;-78
2021/06/25 08:02:35;;;;;;;11.27;2.50;;;;;;;;;;5131606;27;20019;-78
2021/06/25 08:05:01;;;;;;;5.50;2.53;;;;;;;;;;5133508;27;20115;-79
2021/06/25 08:07:27;;;;;;;4.00;2.08;;;;;;;;;;5115435;27;20118;-77
2021/06/25 08:09:53;;;;;;;4.13;2.10;;;;;;;;;;5125672;27;20346;-78
2021/06/25 08:12:19;;;;;;;6.47;1.92;;;;;;;;;;5124523;27;20027;-78
2021/06/25 08:14:45;;;;;;;3.78;1.75;;;;;;;;;;5114454;27;20130;-78
2021/06/25 08:17:11;;;;;;;5.00;2.08;;;;;;;;;;5120040;27;20427;-78
2021/06/25 08:19:37;;;;;;;8.82;2.25;;;;;;;;;;5120685;27;20061;-78
2021/06/25 08:22:04;;;;;;;2.78;1.92;;;;;;;;;;5112675;28;20023;-78
2021/06/25 08:24:31;;;;;;;5.65;1.92;;;;;;;;;;5121193;27;20024;-79
2021/06/25 08:26:57;;;;;;;2.42;1.83;;;;;;;;;;5094292;28;20506;-77
2021/06/25 08:29:23;;;;;;;8.02;2.00;;;;;;;;;;5112746;27;20040;-78
2021/06/25 08:31:49;;;;;;;5.78;1.70;;;;;;;;;;5120785;27;20158;-78
2021/06/25 08:34:15;;;;;;;4.73;1.80;;;;;;;;;;5109208;27;20027;-79
2021/06/25 08:36:42;;;;;;;2.35;1.70;;;;;;;;;;5132388;27;20475;-78
2021/06/25 08:39:08;;;;;;;6.47;1.65;;;;;;;;;;5111521;28;20076;-78
2021/06/25 08:41:35;;;;;;;4.00;1.53;;;;;;;;;;5120664;27;20069;-79
2021/06/25 08:44:01;;;;;;;5.20;1.80;;;;;;;;;;5115832;27;20034;-78
2021/06/25 08:46:32;;;;;;;5.22;1.83;;;;;;;;;;5124358;27;20023;-78
2021/06/25 08:48:59;;;;;;;3.88;2.05;;;;;;;;;;5112072;27;20040;-78
2021/06/25 08:51:25;;;;;;;2.88;1.75;;;;;;;;;;5107654;27;20027;-78
2021/06/25 08:53:52;;;;;;;4.45;1.80;;;;;;;;;;5132331;27;20043;-79
2021/06/25 08:56:18;;;;;;;2.65;1.80;;;;;;;;;;5100898;28;20035;-78
2021/06/25 08:58:44;;;;;;;3.28;1.60;;;;;;;;;;5093727;27;20047;-78
2021/06/25 09:01:10;;;;;;;4.55;1.75;;;;;;;;;;5127572;27;20030;-78
2021/06/25 09:03:39;;;;;;;6.97;2.03;;;;;;;;;;5127319;27;20114;-80
2021/06/25 09:06:10;;;;;;;5.65;2.05;;;;;;;;;;5112921;27;20661;-79
2021/06/25 09:08:36;;;;;;;5.65;2.03;;;;;;;;;;5119293;27;20114;-80
2021/06/25 09:11:17;;;;;;;7.60;1.80;;;;;;;;;;5119438;27;20038;-79
2021/06/25 09:13:43;;;;;;;5.43;1.70;;;;;;;;;;5120084;27;20039;-79
2021/06/25 09:16:20;;;;;;;4.13;1.80;;;;;;;;;;5105609;27;20019;-78
2021/06/25 09:19:00;;;;;;;6.43;1.80;;;;;;;;;;5124181;27;20245;-79
2021/06/25 09:21:26;;;;;;;1.90;1.45;;;;;;;;;;5099098;28;20019;-81
2021/06/25 09:23:52;;;;;;;3.23;1.70;;;;;;;;;;5120807;27;20024;-78
2021/06/25 09:26:21;;;;;;;1.92;1.52;;;;;;;;;;5119960;27;20385;-78
2021/06/25 09:28:47;;;;;;;5.22;1.58;;;;;;;;;;5112386;27;20354;-79
2021/06/25 09:31:22;;;;;;;1.80;1.52;;;;;;;;;;5100583;28;20457;-78
2021/06/25 09:33:53;;;;;;;3.58;1.50;;;;;;;;;;5093797;28;20031;-79
2021/06/25 09:36:21;;;;;;;3.47;1.30;;;;;;;;;;5131490;27;20023;-78
2021/06/25 09:38:47;;;;;;;16.30;2.50;;;;;;;;;;5123796;27;20031;-78
2021/06/25 09:41:21;;;;;;;5.00;1.40;;;;;;;;;;5130592;27;20110;-78
2021/06/25 09:43:54;;;;;;;4.00;1.48;;;;;;;;;;5115628;27;20424;-77
2021/06/25 09:46:30;;;;;;;1.48;1.38;;;;;;;;;;5123268;27;20024;-77
2021/06/25 09:48:57;;;;;;;2.40;1.40;;;;;;;;;;5122685;27;20358;-78
2021/06/25 09:51:23;;;;;;;2.05;1.38;;;;;;;;;;5084369;28;20487;-78
2021/06/25 09:54:02;;;;;;;3.40;1.40;;;;;;;;;;5104943;28;20494;-78
2021/06/25 09:56:28;;;;;;;5.22;2.70;;;;;;;;;;5119093;27;20060;-78
2021/06/25 09:59:25;;;;;;;3.10;2.00;;;;;;;;;;5111451;28;20050;-79
2021/06/25 10:01:51;;;;;;;1.98;1.30;;;;;;;;;;5112846;27;20040;-79
2021/06/25 10:04:17;;;;;;;5.68;1.70;;;;;;;;;;5112059;27;20119;-78
2021/06/25 10:06:43;;;;;;;6.80;1.67;;;;;;;;;;5112412;27;20035;-78
2021/06/25 10:09:09;;;;;;;1.73;1.50;;;;;;;;;;5127890;27;20035;-77
2021/06/25 10:11:35;;;;;;;4.50;1.30;;;;;;;;;;5110168;28;20044;-76
2021/06/25 10:14:02;;;;;;;4.18;1.40;;;;;;;;;;5118273;27;20050;-81
2021/06/25 10:16:29;;;;;;;2.90;1.40;;;;;;;;;;5117873;27;20047;-82
2021/06/25 10:18:56;;;;;;;3.70;2.00;;;;;;;;;;5113093;27;20047;-82
2021/06/25 10:21:27;;;;;;;2.55;1.40;;;;;;;;;;5111763;27;20024;-81
2021/06/25 10:23:54;;;;;;;1.45;1.40;;;;;;;;;;5105529;28;20119;-82
2021/06/25 10:26:21;;;;;;;2.38;1.40;;;;;;;;;;5126410;27;20023;-82
2021/06/25 10:28:48;;;;;;;2.67;1.40;;;;;;;;;;5092833;28;20462;-83
2021/06/25 10:31:15;;;;;;;4.88;1.50;;;;;;;;;;5102652;28;20032;-83
2021/06/25 10:33:42;;;;;;;1.63;1.10;;;;;;;;;;5106930;28;20039;-81
2021/06/25 10:36:12;;;;;;;2.92;1.25;;;;;;;;;;5091408;28;20035;-81
2021/06/25 10:38:39;;;;;;;3.05;1.20;;;;;;;;;;5110175;27;20066;-79
2021/06/25 10:41:06;;;;;;;1.40;1.30;;;;;;;;;;5122230;27;20549;-81
2021/06/25 10:43:39;;;;;;;1.35;1.23;;;;;;;;;;5126668;27;20044;-82
2021/06/25 10:46:05;;;;;;;2.63;1.42;;;;;;;;;;5116895;27;20035;-80
2021/06/25 10:48:38;;;;;;;2.60;1.40;;;;;;;;;;5091118;28;20540;-81
2021/06/25 10:51:22;;;;;;;5.95;1.73;;;;;;;;;;5109757;28;20035;-80
2021/06/25 10:54:04;;;;;;;3.47;1.70;;;;;;;;;;5101787;28;20077;-82
2021/06/25 10:56:30;;;;;;;2.30;1.55;;;;;;;;;;5109296;28;20039;-79
2021/06/25 10:59:20;;;;;;;2.30;1.03;;;;;;;;;;5092493;28;20059;-78
2021/06/25 11:01:47;;;;;;;3.03;1.23;;;;;;;;;;5105575;28;20019;-78
2021/06/25 11:04:13;;;;;;;;;;;;;;;;;;5114731;28;20046;-77
2021/06/25 11:06:50;;;;;;;1.90;1.15;;;;;;;;;;5119085;28;19913;-78
2021/06/25 11:09:16;;;;;;;4.53;2.17;;;;;;;;;;5126751;28;20031;-77
2021/06/25 11:11:42;;;;;;;2.08;1.55;;;;;;;;;;5111561;28;20491;-77
2021/06/25 11:14:24;;;;;;;3.03;1.80;;;;;;;;;;5122708;28;20027;-78
2021/06/25 11:16:50;;;;;;;1.60;1.48;;;;;;;;;;5107096;28;20027;-78
2021/06/25 11:19:36;;;;;;;1.08;1.02;;;;;;;;;;5113577;28;20036;-78
2021/06/25 11:22:02;;;;;;;1.00;1.00;;;;;;;;;;5103709;28;20039;-77
2021/06/25 11:24:58;;;;;;;4.37;1.20;;;;;;;;;;5118689;28;20046;-76
2021/06/25 11:27:24;;;;;;;1.10;1.02;;;;;;;;;;5085098;28;20096;-77
2021/06/25 11:29:50;;;;;;;1.13;1.00;;;;;;;;;;5103190;28;20027;-77
2021/06/25 11:32:29;;;;;;;0.90;0.90;;;;;;;;;;5129140;27;20050;-77
2021/06/25 11:34:55;;;;;;;1.85;1.10;;;;;;;;;;5106232;27;20449;-78
2021/06/25 11:37:22;;;;;;;6.32;1.27;;;;;;;;;;5122082;27;20031;-77
2021/06/25 11:39:51;;;;;;;1.30;1.30;;;;;;;;;;5130519;27;20043;-78
2021/06/25 11:42:18;;;;;;;1.48;1.20;;;;;;;;;;5120748;27;20027;-78
2021/06/25 11:44:47;;;;;;;2.45;1.20;;;;;;;;;;5116905;27;20081;-78
2021/06/25 11:47:16;;;;;;;2.08;1.40;;;;;;;;;;5119232;27;20042;-78
2021/06/25 11:49:44;;;;;;;3.35;1.40;;;;;;;;;;5113214;27;20028;-77
2021/06/25 11:52:12;;;;;;;1.42;1.30;;;;;;;;;;5119027;27;20049;-79
2021/06/25 11:54:38;;;;;;;3.00;1.23;;;;;;;;;;5102883;28;20442;-78
2021/06/25 11:57:05;;;;;;;1.30;1.20;;;;;;;;;;5104383;28;20050;-78
2021/06/25 11:59:32;;;;;;;2.97;1.40;;;;;;;;;;5104765;28;20222;-79
2021/06/25 12:01:59;;;;;;;3.27;2.63;;;;;;;;;;5104568;28;20056;-79
2021/06/25 12:04:32;;;;;;;2.17;1.30;;;;;;;;;;5091677;28;20042;-77
2021/06/25 12:07:00;;;;;;;2.78;1.10;;;;;;;;;;5093010;28;20039;-78
2021/06/25 12:09:36;;;;;;;5.55;1.30;;;;;;;;;;5106018;28;20031;-79
2021/06/25 12:12:02;;;;;;;2.60;1.50;;;;;;;;;;5083729;28;20023;-78
2021/06/25 12:14:40;;;;;;;1.97;1.43;;;;;;;;;;5100474;28;20106;-79
2021/06/25 12:17:06;;;;;;;2.45;1.40;;;;;;;;;;5103959;28;20472;-78
2021/06/25 12:19:32;;;;;;;1.37;1.27;;;;;;;;;;5096881;28;20040;-79
2021/06/25 12:22:04;;;;;;;3.17;1.50;;;;;;;;;;5093852;28;20051;-79
2021/06/25 12:24:30;;;;;;;3.00;1.60;;;;;;;;;;5104491;28;20046;-79
2021/06/25 12:26:56;;;;;;;1.45;1.35;;;;;;;;;;5103637;27;20043;-79
2021/06/25 12:29:25;;;;;;;2.10;1.50;;;;;;;;;;5103540;27;20042;-78
2021/06/25 12:31:52;;;;;;;4.35;1.70;;;;;;;;;;5102273;28;20114;-78
2021/06/25 12:34:18;;;;;;;3.88;1.60;;;;;;;;;;5099010;28;20478;-79
2021/06/25 12:36:44;;;;;;;3.63;1.90;;;;;;;;;;5098973;28;20043;-78
2021/06/25 12:39:10;;;;;;;;;;;;;;;;;;5095903;28;20558;-80
2021/06/25 12:41:42;;;;;;;3.33;1.60;;;;;;;;;;5101646;28;19908;-81
2021/06/25 12:44:08;;;;;;;3.25;1.67;;;;;;;;;;5102329;28;20028;-80
2021/06/25 12:46:34;;;;;;;2.00;1.58;;;;;;;;;;5100417;28;20020;-81
2021/06/25 12:49:00;;;;;;;;;;;;;;;;;;5110768;28;20546;-79
2021/06/25 12:51:29;;;;;;;3.03;1.80;;;;;;;;;;5101755;28;19908;-80
2021/06/25 12:53:57;;;;;;;4.22;1.90;;;;;;;;;;5109745;28;20047;-80
2021/06/25 12:56:25;;;;;;;3.90;1.60;;;;;;;;;;5112024;28;20106;-80
2021/06/25 12:58:57;;;;;;;5.63;1.73;;;;;;;;;;5102465;28;20347;-79
2021/06/25 13:01:23;;;;;;;4.75;1.83;;;;;;;;;;5102782;28;20047;-79
2021/06/25 13:03:49;;;;;;;2.92;1.70;;;;;;;;;;5100750;28;20032;-80
2021/06/25 13:06:32;;;;;;;2.08;1.60;;;;;;;;;;5107674;28;20024;-80
2021/06/25 13:08:59;;;;;;;11.30;1.65;;;;;;;;;;5099813;28;20098;-81
2021/06/25 13:11:32;;;;;;;1.90;1.65;;;;;;;;;;5100137;28;20039;-80
2021/06/25 13:13:59;;;;;;;3.58;1.90;;;;;;;;;;5091514;28;20032;-80
2021/06/25 13:16:26;;;;;;;3.72;1.67;;;;;;;;;;5094349;28;20057;-81
2021/06/25 13:18:53;;;;;;;2.90;1.73;;;;;;;;;;5095282;28;20032;-80
2021/06/25 13:21:25;;;;;;;3.92;1.70;;;;;;;;;;5099789;28;20470;-78
2021/06/25 13:23:56;;;;;;;2.15;1.70;;;;;;;;;;5088816;28;20490;-81
2021/06/25 13:26:26;;;;;;;2.97;1.85;;;;;;;;;;5084888;28;20026;-78
2021/06/25 13:28:58;;;;;;;2.88;1.67;;;;;;;;;;5098702;28;20152;-79
2021/06/25 13:31:24;;;;;;;2.53;1.80;;;;;;;;;;5083103;28;20040;-79
2021/06/25 13:33:50;;;;;;;5.43;1.70;;;;;;;;;;5086760;28;20046;-80
2021/06/25 13:36:16;;;;;;;1.70;1.60;;;;;;;;;;5107025;28;20482;-81
2021/06/25 13:38:42;;;;;;;4.35;2.30;;;;;;;;;;5097038;28;20047;-79
2021/06/25 13:41:34;;;;;;;2.67;1.70;;;;;;;;;;5099351;28;20055;-79
2021/06/25 13:44:00;;;;;;;4.75;1.50;;;;;;;;;;5088096;28;20173;-80
2021/06/25 13:46:27;;;;;;;2.80;1.70;;;;;;;;;;5102804;28;20035;-79
2021/06/25 13:49:04;;;;;;;3.90;1.90;;;;;;;;;;5091550;28;20423;-82
2021/06/25 13:51:30;;;;;;;3.45;1.60;;;;;;;;;;5083898;28;20047;-82
2021/06/25 13:53:56;;;;;;;2.88;1.75;;;;;;;;;;5108426;27;20043;-82
2021/06/25 13:56:27;;;;;;;4.50;1.88;;;;;;;;;;5097166;28;20027;-80
2021/06/25 13:59:00;;;;;;;7.25;2.13;;;;;;;;;;5109041;28;20477;-79
2021/06/25 14:01:28;;;;;;;3.50;1.75;;;;;;;;;;5105115;27;20130;-80
2021/06/25 14:03:54;;;;;;;4.43;1.70;;;;;;;;;;5112041;27;20035;-79
2021/06/25 14:06:20;;;;;;;2.80;1.67;;;;;;;;;;5112927;27;20027;-79
2021/06/25 14:08:46;;;;;;;5.13;1.90;;;;;;;;;;5116556;27;20410;-78
2021/06/25 14:11:17;;;;;;;3.65;1.70;;;;;;;;;;5100694;28;20110;-78
2021/06/25 14:13:45;;;;;;;4.15;1.95;;;;;;;;;;5123635;27;20035;-77
2021/06/25 14:16:15;;;;;;;2.42;1.92;;;;;;;;;;5130392;27;20362;-77
2021/06/25 14:18:41;;;;;;;4.95;1.85;;;;;;;;;;5110711;27;20043;-76
2021/06/25 14:21:08;;;;;;;6.10;1.80;;;;;;;;;;5111070;27;20155;-77
2021/06/25 14:23:34;;;;;;;2.28;1.63;;;;;;;;;;5120854;27;20122;-78
2021/06/25 14:26:00;;;;;;;2.85;1.67;;;;;;;;;;5122208;27;20027;-78
2021/06/25 14:28:26;;;;;;;1.77;1.67;;;;;;;;;;5122049;27;20504;-79
2021/06/25 14:30:52;;;;;;;1.85;1.60;;;;;;;;;;5129415;27;20019;-78
2021/06/25 14:33:19;;;;;;;2.90;2.40;;;;;;;;;;5119090;27;20092;-78
2021/06/25 14:35:45;;;;;;;1.60;1.60;;;;;;;;;;5111277;27;20023;-79
2021/06/25 14:38:11;;;;;;;3.60;1.77;;;;;;;;;;5123543;27;20114;-77
2021/06/25 14:40:37;;;;;;;3.35;1.60;;;;;;;;;;5112439;27;20769;-81
2021/06/25 14:43:03;;;;;;;1.85;1.75;;;;;;;;;;5114898;27;20138;-81
2021/06/25 14:45:29;;;;;;;2.72;1.77;;;;;;;;;;5109854;28;20027;-82
2021/06/25 14:47:55;;;;;;;2.17;1.90;;;;;;;;;;5110527;27;20023;-82
2021/06/25 14:50:21;;;;;;;1.73;1.63;;;;;;;;;;5110162;28;20126;-81
2021/06/25 14:52:47;;;;;;;3.67;1.70;;;;;;;;;;5120912;27;20054;-86